Time;durP1;ratioP1;P1;durP2;ratioP2;P2;SDS_P1;SDS_P2;PMS_P1;PMS_P2;Temp;Humidity;BMP_temperature;BMP_pressure;BME280_temperature;BME280_humidity;BME280_pressure;Samples;Min_cycle;Max_cycle;Signal;HPM_P1;HPM_P2
2023/05/25 00:00:27;;;;;;;4.75;1.80;;;10.00;99.90;;;;;;5006566;28;20908;-67
2023/05/25 00:02:54;;;;;;;5.07;2.17;;;9.90;99.90;;;;;;5010792;28;20041;-67
2023/05/25 00:05:26;;;;;;;5.25;1.67;;;9.90;99.90;;;;;;5014936;28;20530;-67
2023/05/25 00:07:55;;;;;;;6.55;1.90;;;9.90;99.90;;;;;;5017545;28;20381;-67
2023/05/25 00:10:21;;;;;;;6.43;1.92;;;9.90;99.90;;;;;;5017975;28;20029;-67
2023/05/25 00:12:48;;;;;;;9.32;2.25;;;9.80;99.90;;;;;;5019948;28;21229;-68
2023/05/25 00:15:14;;;;;;;4.93;1.50;;;9.80;99.90;;;;;;4995324;28;20048;-67
2023/05/25 00:17:40;;;;;;;4.93;1.58;;;9.80;99.90;;;;;;5014423;28;20044;-67
2023/05/25 00:20:07;;;;;;;6.63;1.92;;;9.80;99.90;;;;;;5008955;28;20048;-67
2023/05/25 00:22:38;;;;;;;3.78;1.58;;;9.80;99.90;;;;;;5013361;28;20028;-68
2023/05/25 00:25:05;;;;;;;6.22;2.25;;;9.80;99.90;;;;;;5012283;28;20024;-68
2023/05/25 00:27:32;;;;;;;4.78;1.88;;;9.80;99.90;;;;;;5013746;28;20040;-68
2023/05/25 00:29:58;;;;;;;4.43;1.48;;;9.80;99.90;;;;;;5016122;28;23074;-68
2023/05/25 00:32:24;;;;;;;4.20;1.38;;;9.70;99.90;;;;;;5021552;28;20739;-69
2023/05/25 00:34:53;;;;;;;7.07;2.45;;;9.70;99.90;;;;;;5019187;28;20408;-68
2023/05/25 00:37:20;;;;;;;3.80;1.45;;;9.70;99.90;;;;;;5011439;28;20044;-68
2023/05/25 00:39:46;;;;;;;5.13;1.48;;;9.70;99.90;;;;;;5006085;28;20048;-68
2023/05/25 00:42:13;;;;;;;6.78;2.03;;;9.70;99.90;;;;;;5015172;28;20051;-69
2023/05/25 00:44:39;;;;;;;4.93;1.60;;;9.60;99.90;;;;;;5012790;28;20033;-68
2023/05/25 00:47:05;;;;;;;6.20;2.13;;;9.60;99.90;;;;;;5008920;28;20685;-68
2023/05/25 00:49:34;;;;;;;5.32;1.75;;;9.60;99.90;;;;;;5016670;28;20523;-68
2023/05/25 00:52:01;;;;;;;4.25;1.48;;;9.60;99.90;;;;;;5004354;28;20046;-68
2023/05/25 00:54:28;;;;;;;8.02;2.20;;;9.50;99.90;;;;;;5020994;28;20352;-68
2023/05/25 00:57:04;;;;;;;8.05;1.77;;;9.50;99.90;;;;;;4994612;28;20033;-68
2023/05/25 00:59:45;;;;;;;5.05;2.00;;;9.50;99.90;;;;;;4989583;28;20079;-68
2023/05/25 01:02:15;;;;;;;5.50;2.00;;;9.50;99.90;;;;;;5012106;28;20050;-68
2023/05/25 01:05:05;;;;;;;8.60;2.13;;;9.50;99.90;;;;;;5013817;28;20036;-68
2023/05/25 01:07:32;;;;;;;7.22;1.70;;;9.40;99.90;;;;;;5012166;28;20044;-68
2023/05/25 01:10:01;;;;;;;4.72;1.33;;;9.40;99.90;;;;;;5000360;28;20075;-69
2023/05/25 01:12:35;;;;;;;6.45;1.83;;;9.40;99.90;;;;;;5020879;28;20032;-69
2023/05/25 01:15:03;;;;;;;5.47;1.48;;;9.40;99.90;;;;;;4997589;28;20041;-67
2023/05/25 01:17:29;;;;;;;5.63;1.75;;;9.40;99.90;;;;;;5024948;28;20048;-68
2023/05/25 01:19:57;;;;;;;6.85;1.98;;;9.40;99.90;;;;;;5007097;28;20299;-68
2023/05/25 01:22:44;;;;;;;5.47;1.48;;;9.40;99.90;;;;;;5012460;28;20035;-68
2023/05/25 01:25:35;;;;;;;9.00;2.03;;;9.40;99.90;;;;;;5003042;28;20075;-68
2023/05/25 01:28:10;;;;;;;5.72;1.70;;;9.40;99.90;;;;;;5013051;28;20032;-69
2023/05/25 01:30:41;;;;;;;6.28;1.95;;;9.40;99.90;;;;;;4998861;28;20049;-69
2023/05/25 01:33:09;;;;;;;10.13;2.80;;;9.30;99.90;;;;;;5021454;28;20029;-68
2023/05/25 01:35:36;;;;;;;9.23;2.95;;;9.30;99.90;;;;;;5000978;28;21118;-68
2023/05/25 01:38:03;;;;;;;6.32;2.13;;;9.30;99.90;;;;;;5012729;28;20400;-68
2023/05/25 01:40:29;;;;;;;5.78;1.70;;;9.30;99.90;;;;;;5007422;28;20041;-68
2023/05/25 01:42:55;;;;;;;6.93;2.15;;;9.20;99.90;;;;;;5012330;28;20033;-68
2023/05/25 01:45:22;;;;;;;6.30;2.47;;;9.20;99.90;;;;;;5011848;28;20040;-68
2023/05/25 01:48:08;;;;;;;5.97;2.03;;;9.20;99.90;;;;;;4997036;28;20037;-68
2023/05/25 01:50:56;;;;;;;6.93;1.98;;;9.20;99.90;;;;;;4994677;28;20040;-68
2023/05/25 01:53:42;;;;;;;7.05;2.25;;;9.20;99.90;;;;;;5023723;28;20523;-68
2023/05/25 01:56:10;;;;;;;7.15;2.58;;;9.20;99.90;;;;;;5018158;28;23132;-68
2023/05/25 01:58:45;;;;;;;7.28;2.47;;;9.10;99.90;;;;;;4994748;28;20039;-68
2023/05/25 02:01:15;;;;;;;5.03;2.47;;;9.20;99.90;;;;;;4991025;28;20075;-68
2023/05/25 02:03:43;;;;;;;6.25;2.28;;;9.10;99.90;;;;;;4995682;28;20044;-68
2023/05/25 02:06:10;;;;;;;6.57;1.95;;;9.10;99.90;;;;;;5010454;28;20221;-68
2023/05/25 02:08:36;;;;;;;4.80;1.75;;;9.10;99.90;;;;;;5012184;28;20032;-68
2023/05/25 02:11:02;;;;;;;6.88;1.88;;;9.10;99.90;;;;;;5010885;28;20499;-68
2023/05/25 02:13:29;;;;;;;5.40;2.15;;;9.10;99.90;;;;;;5006094;28;21123;-68
2023/05/25 02:15:55;;;;;;;6.97;2.72;;;9.10;99.90;;;;;;5020105;28;20037;-69
2023/05/25 02:18:21;;;;;;;5.32;1.90;;;9.10;99.90;;;;;;4994827;28;20052;-68
2023/05/25 02:20:47;;;;;;;5.78;2.30;;;9.00;99.90;;;;;;5003806;28;20041;-68
2023/05/25 02:23:14;;;;;;;5.20;2.05;;;9.10;99.90;;;;;;4994235;28;20044;-68
2023/05/25 02:25:41;;;;;;;4.65;2.08;;;9.00;99.90;;;;;;5012002;28;20033;-69
2023/05/25 02:28:07;;;;;;;5.55;2.42;;;8.90;99.90;;;;;;5010268;28;20040;-69
2023/05/25 02:30:34;;;;;;;5.82;1.80;;;8.90;99.90;;;;;;4991498;28;20036;-69
2023/05/25 02:33:01;;;;;;;5.53;2.47;;;8.90;99.90;;;;;;5019047;28;20040;-68
2023/05/25 02:35:28;;;;;;;6.78;2.45;;;8.80;99.90;;;;;;4985638;28;20033;-68
2023/05/25 02:37:54;;;;;;;3.80;1.55;;;8.80;99.90;;;;;;5016798;28;20044;-68
2023/05/25 02:40:22;;;;;;;5.07;2.20;;;8.80;99.90;;;;;;4988015;28;20515;-68
2023/05/25 02:42:48;;;;;;;8.13;2.40;;;8.70;99.90;;;;;;5010623;28;20055;-68
2023/05/25 02:45:14;;;;;;;5.18;2.03;;;8.70;99.90;;;;;;5010441;28;20039;-69
2023/05/25 02:47:40;;;;;;;5.50;1.77;;;8.70;99.90;;;;;;4995024;28;20033;-69
2023/05/25 02:50:07;;;;;;;7.78;2.95;;;8.70;99.90;;;;;;5006214;28;20388;-68
2023/05/25 02:52:39;;;;;;;8.15;2.97;;;8.60;99.90;;;;;;5014732;28;20053;-68
2023/05/25 02:55:08;;;;;;;5.40;2.28;;;8.60;99.90;;;;;;5020536;28;20055;-68
2023/05/25 02:57:37;;;;;;;7.45;2.75;;;8.50;99.90;;;;;;5018560;28;20496;-68
2023/05/25 03:00:06;;;;;;;5.88;2.17;;;8.50;99.90;;;;;;5007591;28;20040;-69
2023/05/25 03:02:33;;;;;;;5.53;2.35;;;8.50;99.90;;;;;;5009206;28;20044;-68
2023/05/25 03:05:01;;;;;;;7.68;2.78;;;8.50;99.90;;;;;;5009783;28;20044;-68
2023/05/25 03:07:28;;;;;;;5.55;2.55;;;8.40;99.90;;;;;;5010954;28;20301;-68
2023/05/25 03:09:55;;;;;;;7.13;3.08;;;8.40;99.90;;;;;;5004140;28;21006;-68
2023/05/25 03:12:22;;;;;;;6.80;2.53;;;8.40;99.90;;;;;;4993394;28;20021;-68
2023/05/25 03:14:49;;;;;;;8.75;2.33;;;8.40;99.90;;;;;;5000332;28;20043;-69
2023/05/25 03:17:16;;;;;;;8.55;3.22;;;8.40;99.90;;;;;;5017748;28;20516;-69
2023/05/25 03:19:43;;;;;;;4.57;1.90;;;8.40;99.90;;;;;;4992515;28;20037;-69
2023/05/25 03:22:10;;;;;;;6.18;2.28;;;8.40;99.90;;;;;;4977158;28;20044;-68
2023/05/25 03:24:40;;;;;;;5.10;2.65;;;8.40;99.90;;;;;;4977452;28;20033;-68
2023/05/25 03:27:07;;;;;;;5.05;2.30;;;8.40;99.90;;;;;;5027294;28;20033;-69
2023/05/25 03:29:34;;;;;;;8.35;2.50;;;8.40;99.90;;;;;;5002718;28;20041;-68
2023/05/25 03:32:00;;;;;;;6.07;2.92;;;8.30;99.90;;;;;;4989714;28;20033;-69
2023/05/25 03:34:36;;;;;;;7.22;2.10;;;8.30;99.90;;;;;;5018762;28;20052;-69
2023/05/25 03:37:04;;;;;;;5.22;2.17;;;8.30;99.90;;;;;;5019281;28;20377;-68
2023/05/25 03:39:31;;;;;;;8.10;2.20;;;8.30;99.90;;;;;;5012442;28;20116;-68
2023/05/25 03:41:57;;;;;;;7.57;2.50;;;8.30;99.90;;;;;;5023023;28;20992;-68
2023/05/25 03:44:24;;;;;;;10.15;3.13;;;8.30;99.90;;;;;;5007454;28;20052;-69
2023/05/25 03:46:50;;;;;;;7.40;2.53;;;8.30;99.90;;;;;;5010493;28;20040;-68
2023/05/25 03:49:16;;;;;;;8.00;2.90;;;8.30;99.90;;;;;;5007079;28;20099;-68
2023/05/25 03:51:43;;;;;;;5.05;2.20;;;8.40;99.90;;;;;;5006478;28;20045;-68
2023/05/25 03:54:09;;;;;;;8.88;2.97;;;8.40;99.90;;;;;;5001475;28;20033;-69
2023/05/25 03:56:36;;;;;;;6.28;2.35;;;8.30;99.90;;;;;;4983881;28;20037;-68
2023/05/25 03:59:05;;;;;;;7.70;2.65;;;8.40;99.90;;;;;;4998964;28;21434;-68
2023/05/25 04:01:31;;;;;;;8.10;2.72;;;8.40;99.90;;;;;;5005602;28;20048;-68
2023/05/25 04:03:58;;;;;;;9.30;3.70;;;8.40;99.90;;;;;;5011763;28;20037;-67
2023/05/25 04:06:24;;;;;;;9.27;3.30;;;8.40;99.90;;;;;;5009379;28;20036;-68
2023/05/25 04:08:51;;;;;;;9.73;2.97;;;8.50;99.90;;;;;;5007732;28;20041;-68
2023/05/25 04:11:18;;;;;;;5.68;2.33;;;8.50;99.90;;;;;;4987706;28;20036;-69
2023/05/25 04:13:45;;;;;;;7.22;2.38;;;8.60;99.90;;;;;;5015061;28;20044;-69
2023/05/25 04:16:12;;;;;;;8.05;2.22;;;8.60;99.90;;;;;;5018025;28;20055;-68
2023/05/25 04:18:38;;;;;;;7.03;2.33;;;8.60;99.90;;;;;;5001322;28;20041;-68
2023/05/25 04:21:05;;;;;;;10.70;3.03;;;8.70;99.90;;;;;;5004075;28;20048;-68
2023/05/25 04:23:32;;;;;;;10.75;3.35;;;8.70;99.90;;;;;;5008545;28;20032;-68
2023/05/25 04:25:59;;;;;;;7.97;2.78;;;8.80;99.90;;;;;;5010772;28;20037;-69
2023/05/25 04:28:27;;;;;;;7.60;3.08;;;8.80;99.90;;;;;;5008792;28;20632;-69
2023/05/25 04:31:19;;;;;;;;;;;8.90;99.90;;;;;;4986555;28;20049;-70
2023/05/25 04:33:50;;;;;;;13.35;4.85;;;8.90;99.90;;;;;;5013671;28;19942;-69
2023/05/25 04:36:24;;;;;;;9.15;3.50;;;9.00;99.90;;;;;;4988419;28;20396;-69
2023/05/25 04:38:53;;;;;;;5.72;2.60;;;9.00;99.90;;;;;;5022400;28;20032;-69
2023/05/25 04:41:20;;;;;;;8.93;3.33;;;9.10;99.90;;;;;;5013970;28;20068;-69
2023/05/25 04:43:52;;;;;;;10.70;3.65;;;9.20;99.90;;;;;;5012258;28;20143;-70
2023/05/25 04:46:19;;;;;;;9.00;3.20;;;9.30;99.90;;;;;;5012961;28;20032;-70
2023/05/25 04:48:46;;;;;;;9.27;3.58;;;9.40;99.90;;;;;;4993708;28;20037;-69
2023/05/25 04:51:13;;;;;;;9.85;3.75;;;9.50;99.90;;;;;;5022981;28;20060;-69
2023/05/25 04:53:40;;;;;;;6.15;3.05;;;9.60;99.90;;;;;;5014562;28;20043;-69
2023/05/25 04:56:06;;;;;;;11.38;4.68;;;9.70;99.90;;;;;;5017898;28;20043;-70
2023/05/25 04:58:32;;;;;;;10.38;5.65;;;9.80;99.90;;;;;;5019921;28;20040;-69
2023/05/25 05:00:59;;;;;;;9.85;4.72;;;9.90;99.90;;;;;;5008040;28;20045;-69
2023/05/25 05:03:28;;;;;;;9.48;4.60;;;10.10;99.90;;;;;;5010822;28;20047;-70
2023/05/25 05:05:55;;;;;;;11.13;4.55;;;10.20;99.90;;;;;;4976986;28;20029;-70
2023/05/25 05:08:25;;;;;;;8.20;3.42;;;10.30;99.90;;;;;;5010877;28;20033;-69
2023/05/25 05:10:51;;;;;;;8.45;4.38;;;10.50;99.90;;;;;;4990199;28;20393;-69
2023/05/25 05:13:18;;;;;;;9.82;4.18;;;10.60;99.90;;;;;;5013878;28;20048;-70
2023/05/25 05:15:45;;;;;;;14.07;5.40;;;10.70;99.90;;;;;;4988308;28;20439;-69
2023/05/25 05:18:12;;;;;;;13.80;5.88;;;10.90;99.90;;;;;;5005557;28;20044;-70
2023/05/25 05:20:39;;;;;;;11.02;4.05;;;11.10;99.90;;;;;;5014207;28;20432;-69
2023/05/25 05:23:06;;;;;;;8.95;3.80;;;11.20;99.90;;;;;;5012808;28;20037;-70
2023/05/25 05:25:33;;;;;;;7.65;3.55;;;11.30;99.90;;;;;;4994364;28;20364;-69
2023/05/25 05:27:59;;;;;;;7.85;3.53;;;11.40;99.90;;;;;;5009416;28;20033;-73
2023/05/25 05:30:32;;;;;;;13.63;6.30;;;11.50;99.90;;;;;;5019534;28;20544;-74
2023/05/25 05:32:59;;;;;;;11.50;5.70;;;11.50;99.90;;;;;;4996315;28;20041;-72
2023/05/25 05:35:30;;;;;;;15.45;5.95;;;11.60;99.90;;;;;;4981593;28;20484;-72
2023/05/25 05:38:06;;;;;;;19.60;9.50;;;11.60;99.90;;;;;;4992635;28;20040;-72
2023/05/25 05:40:32;;;;;;;12.57;6.20;;;11.60;99.90;;;;;;5017112;28;20041;-72
2023/05/25 05:42:58;;;;;;;14.93;7.53;;;11.70;99.90;;;;;;5027788;28;20055;-75
2023/05/25 05:45:25;;;;;;;12.20;6.80;;;11.70;99.90;;;;;;5010012;28;20028;-71
2023/05/25 05:47:51;;;;;;;12.02;7.00;;;11.80;99.90;;;;;;5011677;28;20829;-72
2023/05/25 05:50:17;;;;;;;15.48;6.78;;;11.80;99.90;;;;;;4992579;28;20029;-72
2023/05/25 05:52:45;;;;;;;12.27;5.18;;;11.80;99.90;;;;;;5027680;28;22097;-72
2023/05/25 05:55:12;;;;;;;7.95;3.97;;;11.90;99.90;;;;;;5011289;28;20040;-68
2023/05/25 05:57:40;;;;;;;13.05;4.93;;;12.00;99.90;;;;;;5000963;28;20025;-72
2023/05/25 06:00:07;;;;;;;16.33;4.53;;;12.30;99.90;;;;;;4997139;28;20255;-72
2023/05/25 06:02:42;;;;;;;20.30;8.02;;;12.50;99.90;;;;;;5016330;28;20937;-71
2023/05/25 06:05:11;;;;;;;16.88;6.47;;;12.80;99.90;;;;;;4995046;28;20037;-70
2023/05/25 06:07:40;;;;;;;14.57;5.50;;;13.10;99.90;;;;;;5013164;28;20039;-71
2023/05/25 06:10:09;;;;;;;9.55;3.58;;;13.40;99.90;;;;;;5006296;28;20037;-72
2023/05/25 06:12:36;;;;;;;10.45;4.55;;;13.70;99.90;;;;;;4994667;28;20055;-70
2023/05/25 06:15:03;;;;;;;17.30;6.97;;;14.00;99.90;;;;;;5010574;28;20037;-69
2023/05/25 06:17:31;;;;;;;11.52;3.55;;;14.20;99.90;;;;;;4998901;28;20321;-70
2023/05/25 06:19:57;;;;;;;9.43;3.63;;;14.20;99.90;;;;;;5011978;28;20045;-69
2023/05/25 06:22:26;;;;;;;16.40;5.95;;;14.30;99.90;;;;;;5019713;28;20044;-70
2023/05/25 06:24:53;;;;;;;9.70;3.72;;;14.40;99.90;;;;;;5012958;28;20526;-69
2023/05/25 06:27:19;;;;;;;11.80;4.93;;;14.40;99.90;;;;;;5011263;28;20480;-69
2023/05/25 06:29:45;;;;;;;14.27;5.70;;;14.40;99.90;;;;;;5000788;28;20104;-68
2023/05/25 06:32:12;;;;;;;14.60;5.50;;;14.30;99.90;;;;;;5010200;28;20041;-69
2023/05/25 06:34:40;;;;;;;16.20;5.80;;;14.30;99.90;;;;;;5010973;28;20033;-68
2023/05/25 06:37:07;;;;;;;11.63;4.95;;;14.40;99.90;;;;;;5010011;28;20048;-69
2023/05/25 06:39:34;;;;;;;8.98;2.85;;;14.60;99.90;;;;;;5011324;28;20044;-69
2023/05/25 06:42:02;;;;;;;10.63;4.07;;;14.70;99.90;;;;;;5019626;28;20037;-69
2023/05/25 06:44:30;;;;;;;8.20;2.20;;;14.80;99.90;;;;;;5015638;28;20029;-70
2023/05/25 06:47:01;;;;;;;11.40;4.20;;;14.80;99.90;;;;;;5011497;28;20442;-69
2023/05/25 06:49:28;;;;;;;8.35;3.15;;;14.80;99.90;;;;;;5005867;28;20041;-69
2023/05/25 06:51:54;;;;;;;12.30;4.10;;;14.90;99.90;;;;;;5009060;28;20064;-69
2023/05/25 06:54:20;;;;;;;8.73;3.00;;;14.90;99.90;;;;;;5012367;28;20039;-70
2023/05/25 06:56:47;;;;;;;8.98;3.50;;;15.00;99.90;;;;;;5010115;28;20423;-69
2023/05/25 06:59:13;;;;;;;10.02;3.63;;;15.10;99.90;;;;;;4995332;28;20060;-69
2023/05/25 07:01:39;;;;;;;12.25;4.32;;;15.20;99.90;;;;;;5000160;28;20088;-69
2023/05/25 07:04:06;;;;;;;17.52;5.38;;;15.30;99.90;;;;;;5019004;28;20507;-70
2023/05/25 07:06:32;;;;;;;9.23;3.55;;;15.30;99.90;;;;;;5010376;28;20245;-70
2023/05/25 07:08:58;;;;;;;10.85;3.30;;;15.30;99.90;;;;;;5011375;28;20036;-69
2023/05/25 07:11:25;;;;;;;13.07;4.28;;;15.30;99.90;;;;;;5006505;28;20029;-69
2023/05/25 07:13:51;;;;;;;12.52;2.95;;;15.40;99.90;;;;;;5012872;28;20573;-70
2023/05/25 07:16:18;;;;;;;11.90;3.47;;;15.50;99.90;;;;;;5010441;28;20502;-69
2023/05/25 07:18:44;;;;;;;10.18;2.92;;;15.50;99.90;;;;;;5012088;28;20037;-69
2023/05/25 07:21:10;;;;;;;9.10;2.40;;;15.60;99.90;;;;;;5016953;28;20041;-69
2023/05/25 07:23:39;;;;;;;13.15;4.15;;;15.80;99.90;;;;;;5019549;28;20037;-69
2023/05/25 07:26:05;;;;;;;12.65;3.28;;;15.80;99.90;;;;;;5013916;28;20017;-70
2023/05/25 07:28:32;;;;;;;8.05;2.70;;;15.90;99.90;;;;;;5009303;28;20025;-70
2023/05/25 07:30:58;;;;;;;8.77;2.90;;;15.90;99.90;;;;;;5004275;28;20037;-69
2023/05/25 07:33:24;;;;;;;8.73;2.22;;;16.10;99.90;;;;;;4995018;28;20044;-70
2023/05/25 07:35:51;;;;;;;7.22;2.38;;;16.20;99.90;;;;;;5008495;28;20785;-69
2023/05/25 07:38:17;;;;;;;7.70;2.45;;;16.30;99.90;;;;;;5009438;28;20037;-70
2023/05/25 07:40:45;;;;;;;9.13;2.15;;;16.40;99.90;;;;;;5007527;28;20036;-69
2023/05/25 07:43:12;;;;;;;7.97;2.55;;;16.40;99.90;;;;;;5017112;28;20037;-70
2023/05/25 07:45:38;;;;;;;9.43;2.53;;;16.40;99.90;;;;;;5029610;28;20032;-69
2023/05/25 07:48:06;;;;;;;9.35;2.88;;;16.40;99.90;;;;;;5010808;28;20029;-69
2023/05/25 07:50:32;;;;;;;11.50;3.20;;;16.50;99.90;;;;;;5006052;28;20029;-69
2023/05/25 07:52:59;;;;;;;11.35;3.22;;;16.60;99.90;;;;;;5010875;28;20435;-69
2023/05/25 07:55:26;;;;;;;13.55;3.88;;;16.60;99.90;;;;;;5009247;28;20589;-69
2023/05/25 07:57:52;;;;;;;7.75;2.55;;;16.70;99.90;;;;;;5011370;28;20499;-70
2023/05/25 08:00:19;;;;;;;9.85;3.03;;;16.80;99.90;;;;;;4992318;28;20033;-71
2023/05/25 08:02:45;;;;;;;10.10;3.03;;;17.00;99.90;;;;;;5017137;28;20037;-70
2023/05/25 08:05:12;;;;;;;7.97;1.58;;;17.00;99.90;;;;;;5018984;28;20048;-69
2023/05/25 08:07:39;;;;;;;9.82;2.97;;;17.10;99.90;;;;;;5018458;28;20055;-69
2023/05/25 08:10:06;;;;;;;8.68;2.42;;;17.20;99.90;;;;;;4993053;28;20037;-69
2023/05/25 08:12:32;;;;;;;7.60;2.13;;;17.20;99.90;;;;;;5015499;28;20041;-70
2023/05/25 08:14:59;;;;;;;8.38;2.67;;;17.20;99.90;;;;;;5015047;28;20032;-69
2023/05/25 08:17:25;;;;;;;13.05;4.47;;;17.00;99.90;;;;;;4997751;28;20253;-70
2023/05/25 08:19:53;;;;;;;9.27;2.92;;;16.90;99.90;;;;;;5009414;28;20044;-70
2023/05/25 08:22:19;;;;;;;8.82;2.72;;;16.90;99.90;;;;;;5020605;28;20037;-69
2023/05/25 08:24:45;;;;;;;8.05;2.15;;;17.00;99.90;;;;;;5020273;28;20056;-69
2023/05/25 08:27:12;;;;;;;8.43;2.22;;;17.10;99.90;;;;;;5022964;28;20056;-69
2023/05/25 08:29:38;;;;;;;7.85;2.83;;;17.20;99.90;;;;;;5009627;28;20041;-69
2023/05/25 08:32:05;;;;;;;9.45;2.38;;;17.30;99.90;;;;;;5027408;28;20037;-69
2023/05/25 08:34:31;;;;;;;9.88;3.58;;;17.30;99.90;;;;;;5012050;28;20372;-70
2023/05/25 08:36:57;;;;;;;9.18;2.63;;;17.50;99.90;;;;;;5013571;28;20488;-69
2023/05/25 08:39:24;;;;;;;9.00;2.42;;;17.50;99.90;;;;;;5010823;28;20045;-67
2023/05/25 08:41:50;;;;;;;7.97;2.60;;;17.70;99.90;;;;;;5016380;28;20024;-65
2023/05/25 08:44:17;;;;;;;8.00;2.65;;;17.90;99.90;;;;;;5022614;28;20021;-67
2023/05/25 08:46:47;;;;;;;6.07;2.08;;;17.90;99.90;;;;;;5006827;28;20025;-67
2023/05/25 08:49:15;;;;;;;11.80;3.70;;;18.10;99.90;;;;;;5013371;28;20045;-66
2023/05/25 08:51:42;;;;;;;12.35;3.55;;;18.10;99.90;;;;;;5009126;28;20052;-69
2023/05/25 08:54:12;;;;;;;10.57;5.28;;;18.10;99.90;;;;;;5010766;28;20036;-71
2023/05/25 08:57:02;;;;;;;12.52;6.40;;;18.00;99.90;;;;;;5013380;28;20048;-71
2023/05/25 09:00:14;;;;;;;12.55;3.10;;;18.10;99.90;;;;;;5008185;28;20052;-69
2023/05/25 09:02:52;;;;;;;8.98;3.40;;;18.20;99.90;;;;;;4959566;28;20160;-68
2023/05/25 09:05:19;;;;;;;10.00;3.00;;;18.40;99.90;;;;;;4983470;28;20042;-69
2023/05/25 09:07:46;;;;;;;7.57;2.90;;;18.40;99.90;;;;;;4996332;28;20064;-69
2023/05/25 09:10:14;;;;;;;10.73;2.78;;;18.50;99.90;;;;;;5016263;28;20036;-69
2023/05/25 09:12:41;;;;;;;9.35;2.55;;;18.70;99.90;;;;;;5015474;28;20036;-69
2023/05/25 09:15:11;;;;;;;7.35;2.20;;;18.90;99.90;;;;;;5014659;28;20064;-68
2023/05/25 09:17:38;;;;;;;8.50;2.67;;;19.10;99.90;;;;;;5012343;28;20041;-68
2023/05/25 09:20:06;;;;;;;9.25;2.22;;;19.30;99.90;;;;;;5007530;28;20024;-69
2023/05/25 09:22:33;;;;;;;9.75;2.33;;;19.30;99.90;;;;;;5014855;28;20531;-69
2023/05/25 09:25:00;;;;;;;7.03;2.38;;;19.40;99.90;;;;;;4983963;28;20025;-69
2023/05/25 09:27:26;;;;;;;7.53;2.88;;;19.50;99.90;;;;;;5024391;28;20024;-69
2023/05/25 09:29:52;;;;;;;10.63;3.15;;;19.70;99.90;;;;;;5016335;28;20568;-70
2023/05/25 09:32:18;;;;;;;10.30;3.13;;;19.80;99.40;;;;;;5001684;28;20029;-69
2023/05/25 09:34:45;;;;;;;6.55;2.22;;;19.70;99.20;;;;;;5027954;28;20041;-68
2023/05/25 09:37:14;;;;;;;5.88;1.83;;;19.60;99.60;;;;;;5013925;28;20033;-69
2023/05/25 09:39:41;;;;;;;4.75;1.65;;;19.30;99.60;;;;;;5006634;28;20045;-69
2023/05/25 09:42:07;;;;;;;4.90;1.88;;;19.10;99.90;;;;;;5012111;28;20041;-70
2023/05/25 09:44:34;;;;;;;7.72;2.17;;;19.00;99.90;;;;;;5014770;28;20479;-68
2023/05/25 09:47:01;;;;;;;6.03;2.13;;;18.90;99.90;;;;;;5020618;28;20598;-67
2023/05/25 09:49:28;;;;;;;7.80;2.38;;;18.90;99.90;;;;;;5016111;28;20972;-68
2023/05/25 09:51:55;;;;;;;6.15;2.20;;;18.80;99.90;;;;;;4999966;28;20514;-69
2023/05/25 09:54:22;;;;;;;7.18;2.70;;;18.50;99.90;;;;;;5014486;28;20073;-71
2023/05/25 09:56:48;;;;;;;7.28;2.35;;;18.40;99.90;;;;;;5015052;28;20128;-69
2023/05/25 09:59:14;;;;;;;6.88;2.15;;;18.60;99.90;;;;;;5009370;28;20040;-69
2023/05/25 10:01:43;;;;;;;5.97;1.60;;;18.80;99.30;;;;;;5009472;28;20040;-70
2023/05/25 10:04:09;;;;;;;7.80;1.85;;;19.10;99.40;;;;;;5012447;28;20839;-68
2023/05/25 10:06:38;;;;;;;5.32;1.48;;;19.60;98.90;;;;;;5017671;28;20404;-69
2023/05/25 10:09:06;;;;;;;7.13;1.98;;;20.00;98.30;;;;;;5021573;28;20039;-68
2023/05/25 10:11:35;;;;;;;7.55;2.10;;;20.20;97.80;;;;;;5019264;28;20415;-70
2023/05/25 10:14:06;;;;;;;4.00;1.35;;;20.20;97.50;;;;;;5012748;28;20032;-68
2023/05/25 10:16:33;;;;;;;4.00;1.20;;;20.00;97.20;;;;;;5013052;28;20029;-70
2023/05/25 10:19:14;;;;;;;5.28;1.85;;;19.90;97.60;;;;;;5013296;28;20052;-69
2023/05/25 10:21:44;;;;;;;6.33;1.67;;;19.90;96.70;;;;;;5011190;28;20037;-70
2023/05/25 10:24:22;;;;;;;6.78;2.00;;;19.90;96.70;;;;;;5011265;28;21251;-69
2023/05/25 10:26:54;;;;;;;6.22;1.50;;;19.90;96.70;;;;;;5015164;28;20021;-68
2023/05/25 10:29:23;;;;;;;6.18;1.52;;;20.00;96.70;;;;;;5018071;28;20647;-68
2023/05/25 10:31:51;;;;;;;5.40;1.30;;;20.00;96.70;;;;;;5002552;28;20622;-69
2023/05/25 10:34:18;;;;;;;5.32;1.67;;;19.90;96.50;;;;;;5014252;28;20032;-70
2023/05/25 10:36:45;;;;;;;6.05;1.85;;;19.90;96.20;;;;;;5011354;28;20178;-68
2023/05/25 10:39:12;;;;;;;6.72;2.00;;;19.80;96.20;;;;;;5010707;28;20908;-68
2023/05/25 10:41:38;;;;;;;5.65;1.45;;;20.00;96.40;;;;;;5009437;28;20048;-68
2023/05/25 10:44:06;;;;;;;4.68;1.48;;;20.50;95.80;;;;;;4994481;28;20041;-69
2023/05/25 10:46:32;;;;;;;5.10;1.70;;;20.90;95.10;;;;;;5014625;28;20037;-69
2023/05/25 10:49:01;;;;;;;6.68;1.40;;;21.20;94.50;;;;;;5021324;28;20028;-69
2023/05/25 10:51:40;;;;;;;4.43;1.17;;;21.20;93.80;;;;;;5017348;28;20053;-69
2023/05/25 10:54:06;;;;;;;5.13;1.42;;;21.00;93.70;;;;;;5019611;28;20373;-69
2023/05/25 10:56:33;;;;;;;4.07;1.17;;;20.90;93.60;;;;;;5011999;28;20139;-70
2023/05/25 10:59:00;;;;;;;3.50;1.13;;;20.90;92.90;;;;;;5010228;28;20029;-69
2023/05/25 11:01:32;;;;;;;6.25;2.20;;;20.80;92.30;;;;;;5022879;28;20037;-68
2023/05/25 11:04:04;;;;;;;4.30;1.20;;;20.90;92.60;;;;;;5011216;28;20380;-70
2023/05/25 11:06:39;;;;;;;;;;;21.10;92.70;;;;;;5011104;28;20048;-68
2023/05/25 11:09:05;;;;;;;4.47;1.20;;;21.10;92.20;;;;;;5018185;28;20364;-69
2023/05/25 11:11:41;;;;;;;8.32;1.98;;;20.90;92.60;;;;;;5016339;28;20033;-69
2023/05/25 11:14:21;;;;;;;4.35;1.40;;;20.70;92.70;;;;;;5018408;28;20048;-68
2023/05/25 11:17:10;;;;;;;4.57;1.80;;;20.40;92.90;;;;;;5010542;28;20384;-69
2023/05/25 11:19:52;;;;;;;5.43;1.40;;;20.30;93.20;;;;;;5003363;28;20033;-68
2023/05/25 11:22:32;;;;;;;6.47;1.70;;;20.20;93.20;;;;;;5008439;28;20048;-69
2023/05/25 11:25:01;;;;;;;4.38;1.05;;;20.30;93.30;;;;;;5010174;28;20412;-68
2023/05/25 11:27:30;;;;;;;3.00;0.93;;;20.50;93.20;;;;;;5011977;28;20040;-70
2023/05/25 11:29:58;;;;;;;3.95;1.48;;;20.90;93.20;;;;;;5024913;28;20048;-69
2023/05/25 11:32:25;;;;;;;3.35;1.02;;;21.30;92.70;;;;;;5017407;28;20036;-69
2023/05/25 11:34:52;;;;;;;5.97;1.40;;;21.40;91.70;;;;;;5021146;28;20032;-68
2023/05/25 11:37:23;;;;;;;6.50;1.48;;;22.00;91.30;;;;;;5012433;28;20612;-69
2023/05/25 11:39:51;;;;;;;5.07;1.60;;;22.60;90.40;;;;;;5007864;28;20037;-69
2023/05/25 11:42:24;;;;;;;5.20;1.58;;;22.80;88.80;;;;;;5013398;28;23207;-69
2023/05/25 11:44:50;;;;;;;4.03;1.27;;;22.50;88.90;;;;;;5015151;28;20036;-69
2023/05/25 11:47:21;;;;;;;4.47;1.50;;;22.20;88.40;;;;;;5032253;28;20032;-71
2023/05/25 11:49:48;;;;;;;5.72;1.73;;;22.40;88.70;;;;;;5011175;28;20044;-71
2023/05/25 11:52:20;;;;;;;4.75;1.95;;;22.50;87.90;;;;;;5023791;28;20045;-73
2023/05/25 11:54:47;;;;;;;5.80;1.63;;;22.50;87.20;;;;;;5023267;28;20029;-72
2023/05/25 11:57:23;;;;;;;4.55;1.75;;;22.40;86.60;;;;;;5019448;28;21001;-71
2023/05/25 11:59:54;;;;;;;5.68;2.40;;;22.90;86.60;;;;;;5009676;28;20029;-71
2023/05/25 12:02:21;;;;;;;5.45;2.05;;;23.50;85.30;;;;;;5016441;28;20523;-71
2023/05/25 12:04:56;;;;;;;9.13;2.55;;;23.60;84.30;;;;;;5013029;28;20041;-70
2023/05/25 12:07:23;;;;;;;7.30;3.28;;;23.40;83.10;;;;;;5013967;28;20100;-71
2023/05/25 12:09:49;;;;;;;6.68;1.98;;;23.20;83.00;;;;;;5006020;28;20044;-70
2023/05/25 12:12:15;;;;;;;4.50;1.50;;;22.70;82.60;;;;;;5018566;28;20033;-70
2023/05/25 12:14:49;;;;;;;7.65;1.98;;;22.40;83.70;;;;;;5019262;28;20802;-71
2023/05/25 12:17:17;;;;;;;8.10;2.35;;;22.30;84.50;;;;;;5016274;28;20040;-71
2023/05/25 12:19:44;;;;;;;7.32;2.72;;;22.20;83.50;;;;;;5001977;28;20881;-71
2023/05/25 12:22:12;;;;;;;4.78;1.60;;;22.10;84.00;;;;;;5009955;28;20040;-71
2023/05/25 12:24:40;;;;;;;6.05;1.92;;;22.00;84.10;;;;;;5006819;28;20035;-70
2023/05/25 12:27:19;;;;;;;6.63;2.22;;;22.20;83.90;;;;;;5006986;28;21564;-72
2023/05/25 12:29:49;;;;;;;6.53;2.08;;;22.60;83.50;;;;;;5000929;28;20048;-71
2023/05/25 12:32:15;;;;;;;6.82;2.08;;;22.70;80.80;;;;;;5016912;28;20056;-70
2023/05/25 12:34:42;;;;;;;6.63;2.40;;;22.40;80.70;;;;;;5005074;28;20036;-70
2023/05/25 12:37:20;;;;;;;5.82;2.15;;;22.10;81.60;;;;;;5020939;28;20037;-69
2023/05/25 12:39:47;;;;;;;6.00;3.00;;;22.90;82.60;;;;;;5009994;28;20037;-69
2023/05/25 12:42:15;;;;;;;6.88;2.08;;;24.10;81.20;;;;;;5011081;28;20053;-68
2023/05/25 12:44:43;;;;;;;5.72;2.05;;;24.70;78.40;;;;;;5011797;28;20033;-69
2023/05/25 12:47:12;;;;;;;7.53;2.63;;;24.70;77.20;;;;;;4993138;28;20037;-69
2023/05/25 12:49:40;;;;;;;5.30;1.90;;;24.20;75.20;;;;;;5003770;28;20048;-69
2023/05/25 12:52:08;;;;;;;4.38;1.55;;;23.40;76.00;;;;;;5013864;28;20053;-69
2023/05/25 12:54:45;;;;;;;7.15;2.03;;;23.00;77.30;;;;;;5017527;28;20040;-70
2023/05/25 12:57:13;;;;;;;6.75;2.03;;;23.00;77.50;;;;;;5018046;28;20044;-70